createdAt,value
2022-10-26T00:00:01.938Z,99277.00
2022-10-26T00:01:59.031Z,99281.00
2022-10-26T00:03:32.291Z,99281.00
2022-10-26T00:05:06.569Z,99276.00
2022-10-26T00:06:39.743Z,99282.00
2022-10-26T00:08:12.395Z,99278.00
2022-10-26T00:09:45.525Z,99272.00
2022-10-26T00:11:20.527Z,99277.00
2022-10-26T00:12:53.942Z,99274.00
2022-10-26T00:14:28.463Z,99268.00
2022-10-26T00:16:02.037Z,99270.00
2022-10-26T00:17:35.699Z,99272.00
2022-10-26T00:19:08.873Z,99267.00
2022-10-26T00:20:42.383Z,99263.00
2022-10-26T00:22:15.665Z,99268.00
2022-10-26T00:23:49.028Z,99274.00
2022-10-26T00:25:21.337Z,99261.00
2022-10-26T00:26:54.519Z,99273.00
2022-10-26T00:28:27.000Z,99270.00
2022-10-26T00:30:00.283Z,99270.00
2022-10-26T00:31:33.752Z,99274.00
2022-10-26T00:33:12.606Z,99263.00
2022-10-26T00:34:45.847Z,99265.00
2022-10-26T00:36:19.405Z,99265.00
2022-10-26T00:37:55.288Z,99268.00
2022-10-26T00:39:28.624Z,99269.00
2022-10-26T00:41:02.029Z,99269.00
2022-10-26T00:42:35.323Z,99261.00
2022-10-26T00:44:59.120Z,99275.00
2022-10-26T00:46:36.797Z,99271.00
2022-10-26T00:48:25.549Z,99276.00
2022-10-26T00:50:16.219Z,99275.00
2022-10-26T00:51:52.628Z,99264.00
2022-10-26T00:53:26.314Z,99268.00
2022-10-26T00:54:59.485Z,99270.00
2022-10-26T00:56:35.395Z,99262.00
2022-10-26T00:58:12.811Z,99268.00
2022-10-26T00:59:47.371Z,99272.00
2022-10-26T01:01:21.234Z,99265.00
2022-10-26T01:02:58.948Z,99269.00
2022-10-26T01:04:35.185Z,99267.00
2022-10-26T01:06:11.137Z,99275.00
2022-10-26T01:07:47.032Z,99258.00
2022-10-26T01:09:21.992Z,99259.00
2022-10-26T01:10:57.680Z,99256.00
2022-10-26T01:12:31.183Z,99252.00
2022-10-26T01:14:09.650Z,99260.00
2022-10-26T01:15:57.706Z,99257.00
2022-10-26T01:17:49.795Z,99249.00
2022-10-26T01:20:06.966Z,99247.00
2022-10-26T01:21:52.150Z,99248.00
2022-10-26T01:23:40.001Z,99249.00
2022-10-26T01:25:32.733Z,99246.00
2022-10-26T01:27:29.321Z,99243.00
2022-10-26T01:29:56.550Z,99248.00
2022-10-26T01:31:41.686Z,99239.00
2022-10-26T01:33:30.675Z,99248.00
2022-10-26T01:35:10.280Z,99253.00
2022-10-26T01:36:51.023Z,99245.00
2022-10-26T01:38:33.540Z,99246.00
2022-10-26T01:40:20.506Z,99248.00
2022-10-26T01:42:01.242Z,99247.00
2022-10-26T01:43:38.808Z,99240.00
2022-10-26T01:45:15.841Z,99234.00
2022-10-26T01:46:54.127Z,99236.00
2022-10-26T01:48:30.872Z,99236.00
2022-10-26T01:50:07.080Z,99229.00
2022-10-26T01:51:45.198Z,99233.00
2022-10-26T01:53:21.150Z,99217.00
2022-10-26T01:55:02.697Z,99220.00
2022-10-26T01:56:40.251Z,99216.00
2022-10-26T01:58:36.942Z,99219.00
2022-10-26T02:00:12.974Z,99219.00
2022-10-26T02:02:26.704Z,99221.00
2022-10-26T02:04:14.830Z,99213.00
2022-10-26T02:06:13.495Z,99209.00
2022-10-26T02:07:59.714Z,99213.00
2022-10-26T02:09:47.150Z,99216.00
2022-10-26T02:11:39.043Z,99216.00
2022-10-26T02:13:21.565Z,99204.00
2022-10-26T02:15:05.771Z,99211.00
2022-10-26T02:16:49.633Z,99201.00
2022-10-26T02:18:34.827Z,99210.00
2022-10-26T02:20:16.871Z,99208.00
2022-10-26T02:21:54.736Z,99206.00
2022-10-26T02:23:31.277Z,99198.00
2022-10-26T02:25:10.183Z,99199.00
2022-10-26T02:26:49.098Z,99195.00
2022-10-26T02:28:30.591Z,99198.00
2022-10-26T02:30:07.102Z,99195.00
2022-10-26T02:31:44.308Z,99196.00
2022-10-26T02:33:20.458Z,99184.00
2022-10-26T02:35:00.233Z,99188.00
2022-10-26T02:36:39.903Z,99184.00
2022-10-26T02:38:15.139Z,99181.00
2022-10-26T02:39:53.499Z,99187.00
2022-10-26T02:41:30.769Z,99181.00
2022-10-26T02:43:08.547Z,99180.00
2022-10-26T02:44:49.337Z,99185.00
2022-10-26T02:46:24.932Z,99183.00
2022-10-26T02:47:58.994Z,99186.00
2022-10-26T02:49:31.543Z,99185.00
2022-10-26T02:51:14.220Z,99182.00
2022-10-26T02:52:59.073Z,99181.00
2022-10-26T02:54:43.012Z,99183.00
2022-10-26T02:56:25.375Z,99167.00
2022-10-26T02:58:05.216Z,99176.00
2022-10-26T02:59:43.878Z,99170.00
2022-10-26T03:01:17.526Z,99170.00
2022-10-26T03:02:57.876Z,99159.00
2022-10-26T03:04:32.366Z,99165.00
2022-10-26T03:06:07.493Z,99166.00
2022-10-26T03:07:39.688Z,99168.00
2022-10-26T03:09:12.884Z,99158.00
2022-10-26T03:10:47.404Z,99166.00
2022-10-26T03:12:20.981Z,99162.00
2022-10-26T03:13:54.130Z,99159.00
2022-10-26T03:15:27.765Z,99163.00
2022-10-26T03:17:00.915Z,99163.00
2022-10-26T03:18:34.097Z,99160.00
2022-10-26T03:20:09.748Z,99162.00
2022-10-26T03:21:44.262Z,99163.00
2022-10-26T03:23:17.745Z,99167.00
2022-10-26T03:24:50.949Z,99166.00
2022-10-26T03:26:24.247Z,99167.00
2022-10-26T03:27:59.134Z,99157.00
2022-10-26T03:29:32.322Z,99168.00
2022-10-26T03:31:06.017Z,99168.00
2022-10-26T03:32:39.713Z,99171.00
2022-10-26T03:34:13.894Z,99157.00
2022-10-26T03:35:47.199Z,99159.00
2022-10-26T03:37:21.889Z,99163.00
2022-10-26T03:38:54.982Z,99163.00
2022-10-26T03:40:28.414Z,99170.00
2022-10-26T03:42:01.664Z,99154.00
2022-10-26T03:43:34.930Z,99160.00
2022-10-26T03:45:09.108Z,99164.00
2022-10-26T03:46:42.362Z,99160.00
2022-10-26T03:48:15.873Z,99164.00
2022-10-26T03:49:49.163Z,99163.00
2022-10-26T03:51:22.492Z,99154.00
2022-10-26T03:52:57.390Z,99156.00
2022-10-26T03:54:29.525Z,99160.00
2022-10-26T03:56:02.694Z,99163.00
2022-10-26T03:57:34.952Z,99164.00
2022-10-26T03:59:08.094Z,99162.00
2022-10-26T04:00:41.417Z,99167.00
2022-10-26T04:02:15.372Z,99168.00
2022-10-26T04:03:48.692Z,99166.00
2022-10-26T04:05:23.922Z,99166.00
2022-10-26T04:07:07.160Z,99171.00
2022-10-26T04:08:41.817Z,99168.00
2022-10-26T04:10:14.959Z,99170.00
2022-10-26T04:11:48.350Z,99169.00
2022-10-26T04:13:21.811Z,99172.00
2022-10-26T04:15:07.794Z,99170.00
2022-10-26T04:16:41.262Z,99165.00
2022-10-26T04:18:14.689Z,99178.00
2022-10-26T04:19:48.086Z,99172.00
2022-10-26T04:21:21.202Z,99174.00
2022-10-26T04:23:02.223Z,99163.00
2022-10-26T04:24:35.717Z,99169.00
2022-10-26T04:26:08.997Z,99171.00
2022-10-26T04:27:41.498Z,99164.00
2022-10-26T04:29:14.851Z,99160.00
2022-10-26T04:30:49.864Z,99168.00
2022-10-26T04:32:23.218Z,99157.00
2022-10-26T04:33:56.564Z,99162.00
2022-10-26T04:35:30.249Z,99168.00
2022-10-26T04:37:03.317Z,99162.00
2022-10-26T04:38:36.619Z,99165.00
2022-10-26T04:40:12.212Z,99163.00
2022-10-26T04:41:45.427Z,99169.00
2022-10-26T04:43:18.605Z,99167.00
2022-10-26T04:44:51.763Z,99164.00
2022-10-26T04:46:24.946Z,99164.00
2022-10-26T04:48:04.579Z,99168.00
2022-10-26T04:49:37.762Z,99164.00
2022-10-26T04:51:11.137Z,99170.00
2022-10-26T04:52:44.302Z,99169.00
2022-10-26T04:54:17.450Z,99169.00
2022-10-26T04:55:57.999Z,99166.00
2022-10-26T04:57:31.109Z,99172.00
2022-10-26T04:59:04.684Z,99168.00
2022-10-26T05:00:37.768Z,99169.00
2022-10-26T05:02:11.114Z,99175.00
2022-10-26T05:03:44.315Z,99165.00
2022-10-26T05:05:17.690Z,99165.00
2022-10-26T05:06:53.896Z,99168.00
2022-10-26T05:08:29.912Z,99163.00
2022-10-26T05:10:03.090Z,99152.00
2022-10-26T05:11:37.678Z,99157.00
2022-10-26T05:13:11.755Z,99157.00
2022-10-26T05:14:45.204Z,99156.00
2022-10-26T05:16:18.416Z,99161.00
2022-10-26T05:17:57.368Z,99150.00
2022-10-26T05:19:30.541Z,99160.00
2022-10-26T05:21:06.454Z,99158.00
2022-10-26T05:22:39.719Z,99168.00
2022-10-26T05:24:13.169Z,99150.00
2022-10-26T05:25:47.325Z,99154.00
2022-10-26T05:27:21.742Z,99160.00
2022-10-26T05:28:54.949Z,99155.00
2022-10-26T05:30:29.556Z,99157.00
2022-10-26T05:32:02.762Z,99156.00
2022-10-26T05:33:36.144Z,99164.00
2022-10-26T05:35:10.079Z,99162.00
2022-10-26T05:36:43.274Z,99156.00
2022-10-26T05:38:18.471Z,99165.00
2022-10-26T05:39:51.633Z,99164.00
2022-10-26T05:41:24.802Z,99153.00
2022-10-26T05:43:02.936Z,99164.00
2022-10-26T05:44:36.094Z,99164.00
2022-10-26T05:46:09.328Z,99160.00
2022-10-26T05:47:43.286Z,99165.00
2022-10-26T05:49:16.694Z,99163.00
2022-10-26T05:50:49.989Z,99162.00
2022-10-26T05:52:23.286Z,99157.00
2022-10-26T05:53:56.747Z,99157.00
2022-10-26T05:55:31.305Z,99164.00
2022-10-26T05:57:05.545Z,99162.00
2022-10-26T05:58:41.257Z,99157.00
2022-10-26T06:00:19.763Z,99163.00
2022-10-26T06:02:07.736Z,99170.00
2022-10-26T06:04:02.416Z,99170.00
2022-10-26T06:05:45.037Z,99174.00
2022-10-26T06:07:21.018Z,99167.00
2022-10-26T06:08:54.921Z,99167.00
2022-10-26T06:10:29.333Z,99174.00
2022-10-26T06:12:03.745Z,99174.00
2022-10-26T06:13:38.094Z,99174.00
2022-10-26T06:15:17.169Z,99174.00
2022-10-26T06:17:12.779Z,99170.00
2022-10-26T06:19:13.914Z,99173.00
2022-10-26T06:21:04.519Z,99164.00
2022-10-26T06:22:59.283Z,99166.00
2022-10-26T06:24:42.742Z,99170.00
2022-10-26T06:26:35.468Z,99167.00
2022-10-26T06:28:26.933Z,99170.00
2022-10-26T06:30:06.972Z,99177.00
2022-10-26T06:31:49.652Z,99168.00
2022-10-26T06:33:30.741Z,99168.00
2022-10-26T06:35:22.586Z,99166.00
2022-10-26T06:36:59.317Z,99161.00
2022-10-26T06:38:36.186Z,99161.00
2022-10-26T06:40:12.619Z,99169.00
2022-10-26T06:41:47.041Z,99170.00
2022-10-26T06:43:26.760Z,99170.00
2022-10-26T06:45:00.833Z,99171.00
2022-10-26T06:46:44.597Z,99167.00
2022-10-26T06:48:26.546Z,99164.00
2022-10-26T06:50:12.770Z,99170.00
2022-10-26T06:51:56.638Z,99166.00
2022-10-26T06:55:17.601Z,99164.00
2022-10-26T06:56:53.460Z,99171.00
2022-10-26T06:58:31.989Z,99167.00
2022-10-26T07:00:20.619Z,99166.00
2022-10-26T07:01:55.290Z,99161.00
2022-10-26T07:03:28.512Z,99167.00
2022-10-26T07:05:01.951Z,99168.00
2022-10-26T07:06:36.919Z,99170.00
2022-10-26T07:08:12.757Z,99168.00
2022-10-26T07:09:46.076Z,99167.00
2022-10-26T07:11:19.339Z,99161.00
2022-10-26T07:12:52.581Z,99166.00
2022-10-26T07:14:25.719Z,99167.00
2022-10-26T07:15:58.969Z,99172.00
2022-10-26T07:17:42.922Z,99169.00
2022-10-26T07:19:16.201Z,99169.00
2022-10-26T07:20:49.363Z,99171.00
2022-10-26T07:22:25.277Z,99175.00
2022-10-26T07:23:58.475Z,99180.00
2022-10-26T07:25:32.079Z,99173.00
2022-10-26T07:27:05.558Z,99180.00
2022-10-26T07:28:38.688Z,99174.00
2022-10-26T07:30:12.840Z,99177.00
2022-10-26T07:31:46.215Z,99176.00
2022-10-26T07:33:21.100Z,99177.00
2022-10-26T07:34:54.357Z,99178.00
2022-10-26T07:36:27.454Z,99176.00
2022-10-26T07:38:00.946Z,99184.00
2022-10-26T07:39:34.169Z,99188.00
2022-10-26T07:41:07.729Z,99184.00
2022-10-26T07:42:43.041Z,99185.00
2022-10-26T07:44:19.209Z,99183.00
2022-10-26T07:45:52.541Z,99190.00
2022-10-26T07:47:25.757Z,99184.00
2022-10-26T07:49:00.403Z,99191.00
2022-10-26T07:50:33.556Z,99187.00
2022-10-26T07:52:06.996Z,99198.00
2022-10-26T07:53:40.238Z,99198.00
2022-10-26T07:55:14.314Z,99197.00
2022-10-26T07:56:50.339Z,99188.00
2022-10-26T07:58:26.044Z,99201.00
2022-10-26T07:59:59.352Z,99200.00
2022-10-26T08:01:32.777Z,99196.00
2022-10-26T08:03:06.192Z,99202.00
2022-10-26T08:04:40.825Z,99202.00
2022-10-26T08:06:15.089Z,99199.00
2022-10-26T08:07:48.819Z,99203.00
2022-10-26T08:09:22.421Z,99207.00
2022-10-26T08:10:55.577Z,99205.00
2022-10-26T08:12:28.926Z,99203.00
2022-10-26T08:14:02.023Z,99206.00
2022-10-26T08:15:35.190Z,99210.00
2022-10-26T08:17:08.458Z,99215.00
2022-10-26T08:18:41.901Z,99213.00
2022-10-26T08:20:16.520Z,99209.00
2022-10-26T08:21:49.840Z,99216.00
2022-10-26T08:23:23.260Z,99214.00
2022-10-26T08:24:56.443Z,99213.00
2022-10-26T08:26:30.602Z,99205.00
2022-10-26T08:28:04.980Z,99209.00
2022-10-26T08:29:38.327Z,99220.00
2022-10-26T08:31:11.636Z,99218.00
2022-10-26T08:32:45.342Z,99211.00
2022-10-26T08:34:18.585Z,99213.00
2022-10-26T08:35:57.295Z,99216.00
2022-10-26T08:37:30.502Z,99217.00
2022-10-26T08:39:03.865Z,99215.00
2022-10-26T08:40:40.947Z,99213.00
2022-10-26T08:42:20.259Z,99215.00
2022-10-26T08:43:59.979Z,99205.00
2022-10-26T08:45:39.074Z,99202.00
2022-10-26T08:47:19.369Z,99213.00
2022-10-26T08:48:57.327Z,99211.00
2022-10-26T08:50:40.483Z,99209.00
2022-10-26T08:52:23.054Z,99207.00
2022-10-26T08:54:02.775Z,99211.00
2022-10-26T08:55:44.955Z,99209.00
2022-10-26T08:57:26.259Z,99218.00
2022-10-26T08:59:06.674Z,99209.00
2022-10-26T09:00:41.671Z,99216.00
2022-10-26T09:02:17.767Z,99221.00
2022-10-26T09:03:51.115Z,99220.00
2022-10-26T09:05:37.251Z,99221.00
2022-10-26T09:07:26.778Z,99228.00
2022-10-26T09:09:09.239Z,99239.00
2022-10-26T09:10:54.749Z,99243.00
2022-10-26T09:12:44.658Z,99242.00
2022-10-26T09:14:24.138Z,99237.00
2022-10-26T09:16:06.528Z,99252.00
2022-10-26T09:17:55.648Z,99260.00
2022-10-26T09:20:04.871Z,99257.00
2022-10-26T09:21:50.013Z,99258.00
2022-10-26T09:23:45.446Z,99260.00
2022-10-26T09:25:21.250Z,99252.00
2022-10-26T09:26:56.918Z,99250.00
2022-10-26T09:28:37.124Z,99245.00
2022-10-26T09:30:18.368Z,99241.00
2022-10-26T09:31:52.013Z,99241.00
2022-10-26T09:33:27.480Z,99251.00
2022-10-26T09:35:05.262Z,99246.00
2022-10-26T09:36:56.257Z,99247.00
2022-10-26T09:38:33.077Z,99245.00
2022-10-26T09:40:14.340Z,99248.00
2022-10-26T09:41:54.685Z,99249.00
2022-10-26T09:43:35.934Z,99253.00
2022-10-26T09:45:21.205Z,99263.00
2022-10-26T09:47:02.438Z,99264.00
2022-10-26T09:48:42.341Z,99275.00
2022-10-26T09:50:26.243Z,99280.00
2022-10-26T09:52:00.934Z,99283.00
2022-10-26T09:53:34.511Z,99285.00
2022-10-26T09:55:11.877Z,99281.00
2022-10-26T09:56:48.696Z,99284.00
2022-10-26T09:58:28.922Z,99289.00
2022-10-26T10:00:02.478Z,99290.00
2022-10-26T10:01:50.916Z,99295.00
2022-10-26T10:03:28.550Z,99306.00
2022-10-26T10:05:02.093Z,99312.00
2022-10-26T10:06:35.246Z,99314.00
2022-10-26T10:08:21.308Z,99323.00
2022-10-26T10:10:10.141Z,99326.00
2022-10-26T10:11:54.658Z,99326.00
2022-10-26T10:13:31.486Z,99343.00
2022-10-26T10:15:05.435Z,99344.00
2022-10-26T10:16:39.142Z,99355.00
2022-10-26T10:18:21.896Z,99348.00
2022-10-26T10:19:55.225Z,99346.00
2022-10-26T10:21:37.579Z,99350.00
2022-10-26T10:23:29.812Z,99342.00
2022-10-26T10:25:06.732Z,99334.00
2022-10-26T10:26:59.945Z,99342.00
2022-10-26T10:28:34.793Z,99349.00
2022-10-26T10:30:23.583Z,99344.00
2022-10-26T10:31:58.603Z,99349.00
2022-10-26T10:33:40.288Z,99351.00
2022-10-26T10:35:26.602Z,99353.00
2022-10-26T10:37:01.252Z,99359.00
2022-10-26T10:38:41.385Z,99356.00
2022-10-26T10:40:22.081Z,99352.00
2022-10-26T10:41:55.442Z,99347.00
2022-10-26T10:43:28.961Z,99351.00
2022-10-26T10:45:04.192Z,99344.00
2022-10-26T10:46:38.691Z,99361.00
2022-10-26T10:48:18.991Z,99355.00
2022-10-26T10:49:57.082Z,99354.00
2022-10-26T10:51:39.051Z,99355.00
2022-10-26T10:53:19.375Z,99354.00
2022-10-26T10:55:09.051Z,99356.00
2022-10-26T10:56:49.871Z,99368.00
2022-10-26T10:58:34.024Z,99363.00
2022-10-26T11:00:11.060Z,99359.00
2022-10-26T11:01:51.666Z,99364.00
2022-10-26T11:04:00.185Z,99369.00
2022-10-26T11:05:51.510Z,99373.00
2022-10-26T11:07:28.841Z,99383.00
2022-10-26T11:09:08.360Z,99387.00
2022-10-26T11:10:48.446Z,99379.00
2022-10-26T11:12:29.915Z,99376.00
2022-10-26T11:14:11.699Z,99374.00
2022-10-26T11:15:47.506Z,99371.00
2022-10-26T11:17:26.364Z,99364.00
2022-10-26T11:19:07.377Z,99366.00
2022-10-26T11:20:50.617Z,99385.00
2022-10-26T11:22:29.995Z,99395.00
2022-10-26T11:24:16.620Z,99389.00
2022-10-26T11:25:59.005Z,99387.00
2022-10-26T11:27:42.492Z,99396.00
2022-10-26T11:29:27.360Z,99397.00
2022-10-26T11:31:08.533Z,99399.00
2022-10-26T11:32:48.211Z,99403.00
2022-10-26T11:34:32.750Z,99407.00
2022-10-26T11:36:16.049Z,99397.00
2022-10-26T11:38:02.769Z,99414.00
2022-10-26T11:39:45.791Z,99408.00
2022-10-26T11:41:26.236Z,99409.00
2022-10-26T11:43:07.696Z,99398.00
2022-10-26T11:44:52.751Z,99398.00
2022-10-26T11:46:34.927Z,99403.00
2022-10-26T11:48:17.712Z,99414.00
2022-10-26T11:50:01.721Z,99413.00
2022-10-26T11:51:44.150Z,99415.00
2022-10-26T11:53:22.192Z,99419.00
2022-10-26T11:55:00.521Z,99402.00
2022-10-26T11:56:41.367Z,99416.00
2022-10-26T11:58:15.092Z,99415.00
2022-10-26T11:59:53.001Z,99420.00
2022-10-26T12:01:29.739Z,99425.00
2022-10-26T12:03:10.422Z,99409.00
2022-10-26T12:04:47.104Z,99416.00
2022-10-26T12:06:25.885Z,99410.00
2022-10-26T12:08:07.394Z,99421.00
2022-10-26T12:09:45.107Z,99423.00
2022-10-26T12:11:35.978Z,99437.00
2022-10-26T12:13:23.482Z,99425.00
2022-10-26T12:15:11.910Z,99420.00
2022-10-26T12:16:58.274Z,99428.00
2022-10-26T12:18:54.567Z,99419.00
2022-10-26T12:20:56.538Z,99426.00
2022-10-26T12:22:35.433Z,99429.00
2022-10-26T12:24:30.607Z,99437.00
2022-10-26T12:26:41.277Z,99443.00
2022-10-26T12:28:42.847Z,99445.00
2022-10-26T12:30:30.492Z,99437.00
2022-10-26T12:32:04.662Z,99437.00
2022-10-26T12:33:51.744Z,99440.00
2022-10-26T12:35:46.263Z,99445.00
2022-10-26T12:37:36.682Z,99449.00
2022-10-26T12:39:32.676Z,99450.00
2022-10-26T12:41:19.587Z,99446.00
2022-10-26T12:42:52.817Z,99441.00
2022-10-26T12:44:37.772Z,99452.00
2022-10-26T12:46:41.172Z,99441.00
2022-10-26T12:48:38.939Z,99443.00
2022-10-26T12:50:25.930Z,99440.00
2022-10-26T12:51:58.060Z,99454.00
2022-10-26T12:53:31.461Z,99457.00
2022-10-26T12:55:57.721Z,99450.00
2022-10-26T12:57:38.595Z,99464.00
2022-10-26T12:59:28.916Z,99453.00
2022-10-26T13:03:35.914Z,99463.00
2022-10-26T13:05:50.935Z,99461.00
2022-10-26T13:07:26.244Z,99468.00
2022-10-26T13:09:03.024Z,99466.00
2022-10-26T13:10:44.255Z,99464.00
2022-10-26T13:12:17.630Z,99461.00
2022-10-26T13:13:56.420Z,99471.00
2022-10-26T13:15:34.369Z,99476.00
2022-10-26T13:17:24.460Z,99478.00
2022-10-26T13:18:58.985Z,99475.00
2022-10-26T13:20:34.850Z,99484.00
2022-10-26T13:22:15.745Z,99486.00
2022-10-26T13:24:01.417Z,99480.00
2022-10-26T13:25:34.677Z,99480.00
2022-10-26T13:27:57.817Z,99486.00
2022-10-26T13:29:31.989Z,99477.00
2022-10-26T13:31:05.992Z,99487.00
2022-10-26T13:32:43.967Z,99477.00
2022-10-26T13:34:21.153Z,99493.00
2022-10-26T13:35:59.520Z,99482.00
2022-10-26T13:37:35.634Z,99493.00
2022-10-26T13:39:18.246Z,99486.00
2022-10-26T13:40:59.956Z,99488.00
2022-10-26T13:42:45.693Z,99494.00
2022-10-26T13:44:28.530Z,99493.00
2022-10-26T13:46:04.723Z,99494.00
2022-10-26T13:47:46.581Z,99499.00
2022-10-26T13:49:28.679Z,99500.00
2022-10-26T13:51:07.305Z,99496.00
2022-10-26T13:52:45.569Z,99501.00
2022-10-26T13:54:27.043Z,99495.00
2022-10-26T13:56:07.574Z,99496.00
2022-10-26T13:57:46.099Z,99499.00
2022-10-26T14:01:15.585Z,99501.00
2022-10-26T14:02:49.711Z,99507.00
2022-10-26T14:04:28.942Z,99505.00
2022-10-26T14:06:05.812Z,99503.00
2022-10-26T14:07:45.826Z,99504.00
2022-10-26T14:09:21.463Z,99500.00
2022-10-26T14:10:59.039Z,99506.00
2022-10-26T14:12:33.786Z,99509.00
2022-10-26T14:14:15.881Z,99502.00
2022-10-26T14:15:49.287Z,99514.00
2022-10-26T14:17:26.825Z,99509.00
2022-10-26T14:19:00.464Z,99511.00
2022-10-26T14:20:34.022Z,99525.00
2022-10-26T14:22:08.041Z,99516.00
2022-10-26T14:23:49.853Z,99526.00
2022-10-26T14:25:36.167Z,99520.00
2022-10-26T14:27:17.403Z,99527.00
2022-10-26T14:28:54.452Z,99524.00
2022-10-26T14:30:32.868Z,99524.00
2022-10-26T14:32:22.574Z,99531.00
2022-10-26T14:33:58.618Z,99527.00
2022-10-26T14:35:36.521Z,99532.00
2022-10-26T14:37:35.255Z,99530.00
2022-10-26T14:39:21.205Z,99529.00
2022-10-26T14:40:58.498Z,99529.00
2022-10-26T14:42:35.578Z,99533.00
2022-10-26T14:44:20.326Z,99537.00
2022-10-26T14:45:57.239Z,99540.00
2022-10-26T14:47:34.009Z,99550.00
2022-10-26T14:49:07.100Z,99542.00
2022-10-26T14:50:42.963Z,99548.00
2022-10-26T14:52:27.610Z,99538.00
2022-10-26T14:54:05.778Z,99544.00
2022-10-26T14:55:50.042Z,99544.00
2022-10-26T14:57:37.512Z,99541.00
2022-10-26T14:59:25.745Z,99548.00
2022-10-26T15:01:36.234Z,99543.00
2022-10-26T15:03:17.790Z,99546.00
2022-10-26T15:05:01.347Z,99536.00
2022-10-26T15:06:44.414Z,99552.00
2022-10-26T15:08:56.081Z,99555.00
2022-10-26T15:10:48.747Z,99562.00
2022-10-26T15:12:26.967Z,99565.00
2022-10-26T15:14:02.261Z,99563.00
2022-10-26T15:15:38.976Z,99560.00
2022-10-26T15:17:24.285Z,99566.00
2022-10-26T15:19:07.255Z,99569.00
2022-10-26T15:20:51.180Z,99563.00
2022-10-26T15:22:32.075Z,99569.00
2022-10-26T15:24:28.139Z,99570.00
2022-10-26T15:26:04.042Z,99568.00
2022-10-26T15:27:37.468Z,99575.00
2022-10-26T15:29:39.826Z,99572.00
2022-10-26T15:31:32.883Z,99574.00
2022-10-26T15:33:22.296Z,99581.00
2022-10-26T15:35:29.304Z,99583.00
2022-10-26T15:37:09.698Z,99580.00
2022-10-26T15:38:43.728Z,99585.00
2022-10-26T15:40:18.490Z,99588.00
2022-10-26T15:41:53.446Z,99590.00
2022-10-26T15:43:26.633Z,99591.00
2022-10-26T15:45:00.780Z,99586.00
2022-10-26T15:46:36.555Z,99592.00
2022-10-26T15:48:25.504Z,99603.00
2022-10-26T15:49:58.856Z,99599.00
2022-10-26T15:51:32.596Z,99604.00
2022-10-26T15:53:17.465Z,99605.00
2022-10-26T15:54:50.663Z,99604.00
2022-10-26T15:56:26.432Z,99604.00
2022-10-26T15:57:59.706Z,99606.00
2022-10-26T15:59:33.179Z,99607.00
2022-10-26T16:01:06.905Z,99608.00
2022-10-26T16:02:43.698Z,99613.00
2022-10-26T16:04:18.298Z,99615.00
2022-10-26T16:05:58.223Z,99621.00
2022-10-26T16:07:31.518Z,99626.00
2022-10-26T16:09:08.310Z,99621.00
2022-10-26T16:10:41.514Z,99621.00
2022-10-26T16:12:15.247Z,99626.00
2022-10-26T16:15:25.511Z,99633.00
2022-10-26T16:16:58.669Z,99635.00
2022-10-26T16:18:31.828Z,99639.00
2022-10-26T16:20:09.223Z,99640.00
2022-10-26T16:21:42.715Z,99641.00
2022-10-26T16:23:17.581Z,99638.00
2022-10-26T16:24:50.936Z,99642.00
2022-10-26T16:26:24.830Z,99633.00
2022-10-26T16:27:58.111Z,99636.00
2022-10-26T16:29:31.907Z,99644.00
2022-10-26T16:31:07.911Z,99643.00
2022-10-26T16:32:41.824Z,99643.00
2022-10-26T16:34:15.463Z,99646.00
2022-10-26T16:35:57.909Z,99655.00
2022-10-26T16:37:32.013Z,99656.00
2022-10-26T16:39:05.535Z,99661.00
2022-10-26T16:40:38.750Z,99657.00
2022-10-26T16:42:12.027Z,99658.00
2022-10-26T16:43:46.821Z,99667.00
2022-10-26T16:45:21.003Z,99663.00
2022-10-26T16:46:54.277Z,99672.00
2022-10-26T16:48:27.783Z,99686.00
2022-10-26T16:50:00.937Z,99671.00
2022-10-26T16:51:35.662Z,99671.00
2022-10-26T16:53:08.684Z,99675.00
2022-10-26T16:54:42.001Z,99689.00
2022-10-26T16:56:18.246Z,99686.00
2022-10-26T16:57:51.803Z,99689.00
2022-10-26T16:59:25.096Z,99687.00
2022-10-26T17:00:58.603Z,99692.00
2022-10-26T17:02:32.188Z,99703.00
2022-10-26T17:04:06.287Z,99696.00
2022-10-26T17:05:39.678Z,99707.00
2022-10-26T17:07:14.335Z,99711.00
2022-10-26T17:08:48.318Z,99711.00
2022-10-26T17:10:21.686Z,99709.00
2022-10-26T17:11:58.287Z,99712.00
2022-10-26T17:13:35.534Z,99713.00
2022-10-26T17:15:10.012Z,99722.00
2022-10-26T17:16:43.385Z,99720.00
2022-10-26T17:18:17.434Z,99725.00
2022-10-26T17:19:50.755Z,99723.00
2022-10-26T17:21:31.653Z,99735.00
2022-10-26T17:23:07.032Z,99747.00
2022-10-26T17:24:40.243Z,99752.00
2022-10-26T17:26:15.653Z,99749.00
2022-10-26T17:27:48.978Z,99754.00
2022-10-26T17:29:22.178Z,99755.00
2022-10-26T17:31:04.311Z,99756.00
2022-10-26T17:32:37.603Z,99763.00
2022-10-26T17:34:10.836Z,99763.00
2022-10-26T17:35:44.077Z,99764.00
2022-10-26T17:37:16.285Z,99771.00
2022-10-26T17:38:53.434Z,99776.00
2022-10-26T17:40:26.873Z,99768.00
2022-10-26T17:42:00.086Z,99779.00
2022-10-26T17:43:35.653Z,99777.00
2022-10-26T17:45:10.706Z,99775.00
2022-10-26T17:46:43.970Z,99788.00
2022-10-26T17:48:17.137Z,99792.00
2022-10-26T17:49:51.153Z,99792.00
2022-10-26T17:51:25.962Z,99793.00
2022-10-26T17:52:59.315Z,99807.00
2022-10-26T17:54:33.859Z,99803.00
2022-10-26T17:56:09.919Z,99806.00
2022-10-26T17:57:43.116Z,99801.00
2022-10-26T17:59:17.478Z,99804.00
2022-10-26T18:00:50.744Z,99806.00
2022-10-26T18:02:24.008Z,99809.00
2022-10-26T18:03:57.432Z,99823.00
2022-10-26T18:05:32.165Z,99818.00
2022-10-26T18:07:05.484Z,99824.00
2022-10-26T18:08:40.685Z,99827.00
2022-10-26T18:12:10.645Z,99821.00
2022-10-26T18:13:43.849Z,99828.00
2022-10-26T18:15:17.544Z,99836.00
2022-10-26T18:16:50.870Z,99833.00
2022-10-26T18:18:24.084Z,99835.00
2022-10-26T18:21:37.360Z,99846.00
2022-10-26T18:23:11.900Z,99841.00
2022-10-26T18:24:45.183Z,99837.00
2022-10-26T18:26:22.784Z,99853.00
2022-10-26T18:27:56.547Z,99846.00
2022-10-26T18:29:29.940Z,99850.00
2022-10-26T18:31:06.884Z,99852.00
2022-10-26T18:32:40.594Z,99862.00
2022-10-26T18:34:14.533Z,99858.00
2022-10-26T18:35:47.900Z,99867.00
2022-10-26T18:37:21.461Z,99866.00
2022-10-26T18:38:55.070Z,99869.00
2022-10-26T18:40:28.302Z,99870.00
2022-10-26T18:42:03.026Z,99873.00
2022-10-26T18:43:40.666Z,99872.00
2022-10-26T18:45:13.995Z,99877.00
2022-10-26T18:46:51.793Z,99879.00
2022-10-26T18:48:25.084Z,99879.00
2022-10-26T18:50:01.404Z,99878.00
2022-10-26T18:51:35.964Z,99888.00
2022-10-26T18:53:12.658Z,99888.00
2022-10-26T18:54:48.506Z,99888.00
2022-10-26T18:56:24.034Z,99895.00
2022-10-26T18:57:59.442Z,99891.00
2022-10-26T18:59:32.713Z,99899.00
2022-10-26T19:01:10.134Z,99899.00
2022-10-26T19:02:53.821Z,99906.00
2022-10-26T19:04:27.998Z,99909.00
2022-10-26T19:06:09.930Z,99904.00
2022-10-26T19:07:45.314Z,99911.00
2022-10-26T19:09:19.910Z,99907.00
2022-10-26T19:10:53.038Z,99905.00
2022-10-26T19:12:26.204Z,99906.00
2022-10-26T19:14:01.908Z,99911.00
2022-10-26T19:15:35.161Z,99913.00
2022-10-26T19:17:08.883Z,99912.00
2022-10-26T19:18:42.802Z,99914.00
2022-10-26T19:20:16.912Z,99917.00
2022-10-26T19:21:51.273Z,99912.00
2022-10-26T19:23:25.556Z,99918.00
2022-10-26T19:24:58.769Z,99907.00
2022-10-26T19:26:36.757Z,99910.00
2022-10-26T19:28:10.985Z,99908.00